Time;durP1;ratioP1;P1;durP2;ratioP2;P2;SDS_P1;SDS_P2;PMS_P1;PMS_P2;Temp;Humidity;BMP_temperature;BMP_pressure;BME280_temperature;BME280_humidity;BME280_pressure;Samples;Min_cycle;Max_cycle;Signal;HPM_P1;HPM_P2
2023/03/05 00:02:07;;;;;;;5.93;2.92;;;;;;;5.40;100.00;101830.94;5046503;28;20410;-49
2023/03/05 00:04:33;;;;;;;5.10;3.30;;;;;;;5.35;100.00;101822.59;5045817;28;20493;-51
2023/03/05 00:06:58;;;;;;;2.85;2.60;;;;;;;5.25;100.00;101813.75;5039763;28;20132;-53
2023/03/05 00:09:23;;;;;;;4.72;3.05;;;;;;;5.22;100.00;101816.66;5046264;28;20032;-53
2023/03/05 00:11:49;;;;;;;3.90;1.92;;;;;;;5.30;100.00;101816.88;5042799;28;20027;-54
2023/03/05 00:14:14;;;;;;;3.60;2.80;;;;;;;5.34;100.00;101814.81;5052550;28;20028;-52
2023/03/05 00:16:40;;;;;;;3.40;2.03;;;;;;;5.34;100.00;101809.56;5047166;28;20064;-53
2023/03/05 00:19:05;;;;;;;3.63;1.70;;;;;;;5.33;100.00;101800.00;5049495;28;20313;-54
2023/03/05 00:21:40;;;;;;;5.28;2.35;;;;;;;5.32;100.00;101798.31;5050028;28;20386;-54
2023/03/05 00:24:09;;;;;;;8.80;2.13;;;;;;;5.34;100.00;101799.84;5059904;28;20528;-52
2023/03/05 00:26:36;;;;;;;8.98;3.13;;;;;;;5.35;100.00;101800.72;5050436;28;20029;-52
2023/03/05 00:29:02;;;;;;;5.07;1.42;;;;;;;5.26;100.00;101797.03;5050360;28;20025;-54
2023/03/05 00:31:29;;;;;;;4.00;2.30;;;;;;;5.26;100.00;101794.38;5047187;28;20575;-52
2023/03/05 00:33:57;;;;;;;5.55;3.72;;;;;;;5.20;100.00;101784.38;5054035;28;20390;-52
2023/03/05 00:36:24;;;;;;;4.13;2.25;;;;;;;5.19;100.00;101791.44;5050966;28;20029;-54
2023/03/05 00:38:49;;;;;;;1.70;1.50;;;;;;;5.23;100.00;101792.00;5050492;28;20476;-55
2023/03/05 00:41:15;;;;;;;4.57;1.88;;;;;;;5.27;100.00;101792.59;5048949;28;20029;-50
2023/03/05 00:43:41;;;;;;;4.45;2.65;;;;;;;5.30;100.00;101781.84;5054852;28;20127;-51
2023/03/05 00:46:06;;;;;;;7.10;2.42;;;;;;;5.31;100.00;101783.50;5042564;28;20049;-52
2023/03/05 00:48:31;;;;;;;5.35;3.15;;;;;;;5.23;100.00;101784.13;5048810;28;20460;-54
2023/03/05 00:50:56;;;;;;;7.20;2.15;;;;;;;5.18;100.00;101788.91;5045592;28;20038;-52
2023/03/05 00:53:22;;;;;;;5.20;2.63;;;;;;;5.11;100.00;101785.09;5049211;28;20041;-54
2023/03/05 00:55:47;;;;;;;5.85;2.67;;;;;;;5.12;100.00;101785.00;5045866;28;20032;-52
2023/03/05 00:58:13;;;;;;;10.77;2.17;;;;;;;5.14;100.00;101782.25;5056531;28;20052;-51
2023/03/05 01:00:38;;;;;;;8.07;2.60;;;;;;;5.14;100.00;101769.94;5051357;28;20394;-53
2023/03/05 01:03:04;;;;;;;8.98;3.40;;;;;;;5.15;100.00;101768.97;5048634;28;20028;-51
2023/03/05 01:05:30;;;;;;;3.25;2.70;;;;;;;5.14;100.00;101766.47;5052426;28;20456;-55
2023/03/05 01:07:55;;;;;;;5.57;2.40;;;;;;;5.05;100.00;101759.31;5037444;28;20056;-53
2023/03/05 01:10:25;;;;;;;3.97;2.67;;;;;;;5.08;100.00;101756.44;5048241;28;20115;-54
2023/03/05 01:12:50;;;;;;;7.28;2.47;;;;;;;5.09;100.00;101755.50;5050417;28;20035;-52
2023/03/05 01:15:16;;;;;;;4.55;2.58;;;;;;;5.12;100.00;101750.00;5046904;28;20021;-51
2023/03/05 01:17:41;;;;;;;4.00;1.80;;;;;;;5.16;100.00;101754.03;5045555;28;20330;-51
2023/03/05 01:20:07;;;;;;;2.95;2.33;;;;;;;5.16;100.00;101754.03;5046673;28;20033;-53
2023/03/05 01:22:32;;;;;;;7.13;2.15;;;;;;;5.14;100.00;101748.06;5041266;28;20437;-51
2023/03/05 01:24:59;;;;;;;4.60;2.15;;;;;;;5.16;100.00;101752.25;5047537;28;20057;-53
2023/03/05 01:27:24;;;;;;;2.47;1.70;;;;;;;5.14;100.00;101745.44;5050476;28;20035;-52
2023/03/05 01:29:49;;;;;;;11.35;1.95;;;;;;;5.14;100.00;101734.94;5047911;28;20024;-54
2023/03/05 01:32:15;;;;;;;8.80;2.50;;;;;;;5.08;100.00;101730.16;5053767;28;20032;-54
2023/03/05 01:34:40;;;;;;;7.60;2.63;;;;;;;5.09;100.00;101732.66;5049811;28;20037;-53
2023/03/05 01:37:07;;;;;;;6.20;2.38;;;;;;;5.08;100.00;101733.59;5050703;28;20088;-51
2023/03/05 01:39:32;;;;;;;4.43;2.40;;;;;;;5.09;100.00;101726.59;5050980;28;20036;-55
2023/03/05 01:41:58;;;;;;;3.67;2.22;;;;;;;5.11;100.00;101729.91;5051426;28;20025;-52
2023/03/05 01:44:26;;;;;;;14.73;3.78;;;;;;;5.05;100.00;101718.09;5048665;28;20097;-53
2023/03/05 01:46:51;;;;;;;6.20;2.17;;;;;;;5.05;100.00;101722.50;5042177;28;20055;-55
2023/03/05 01:49:38;;;;;;;2.78;2.22;;;;;;;5.11;100.00;101711.50;5047537;28;20096;-52
2023/03/05 01:52:10;;;;;;;4.43;1.83;;;;;;;5.09;100.00;101711.63;5050204;28;20033;-55
2023/03/05 01:54:42;;;;;;;3.90;3.33;;;;;;;5.07;100.00;101707.47;5044439;28;20063;-53
2023/03/05 01:57:12;;;;;;;3.92;2.72;;;;;;;5.07;100.00;101700.41;5053452;28;20047;-54
2023/03/05 01:59:41;;;;;;;4.05;2.15;;;;;;;5.07;100.00;101696.94;5046429;28;20036;-54
2023/03/05 02:02:07;;;;;;;2.80;2.15;;;;;;;5.09;100.00;101701.13;5049441;28;20044;-51
2023/03/05 02:04:43;;;;;;;3.58;2.40;;;;;;;5.06;100.00;101701.38;5035862;28;20120;-52
2023/03/05 02:07:10;;;;;;;6.00;3.65;;;;;;;5.05;100.00;101696.22;5057295;28;20032;-52
2023/03/05 02:09:40;;;;;;;7.68;2.50;;;;;;;5.05;100.00;101696.22;5048767;28;20045;-53
2023/03/05 02:12:07;;;;;;;4.35;2.78;;;;;;;5.01;100.00;101693.84;5047253;28;20363;-52
2023/03/05 02:14:33;;;;;;;4.32;2.45;;;;;;;5.02;100.00;101689.44;5042947;28;20068;-53
2023/03/05 02:16:59;;;;;;;3.83;2.60;;;;;;;5.03;100.00;101681.44;5044365;28;20044;-50
2023/03/05 02:19:25;;;;;;;7.07;4.35;;;;;;;5.09;100.00;101685.34;5047813;28;20021;-54
2023/03/05 02:21:50;;;;;;;5.35;2.65;;;;;;;5.12;100.00;101685.09;5049439;28;20494;-53
2023/03/05 02:24:33;;;;;;;2.85;2.50;;;;;;;5.16;100.00;101676.00;5050586;28;20067;-49
2023/03/05 02:27:00;;;;;;;3.53;1.83;;;;;;;5.12;100.00;101674.56;5049897;28;20389;-53
2023/03/05 02:29:29;;;;;;;7.60;2.45;;;;;;;5.11;100.00;101670.28;5049718;28;20036;-55
2023/03/05 02:31:54;;;;;;;4.57;2.30;;;;;;;5.14;100.00;101663.94;5050410;28;20040;-55
2023/03/05 02:34:21;;;;;;;4.97;2.25;;;;;;;5.12;100.00;101655.34;5046724;28;20032;-53
2023/03/05 02:36:49;;;;;;;3.67;2.28;;;;;;;5.12;100.00;101660.59;5045715;28;20429;-53
2023/03/05 02:39:14;;;;;;;3.03;1.83;;;;;;;5.13;100.00;101657.81;5044936;28;20115;-51
2023/03/05 02:41:40;;;;;;;6.78;2.20;;;;;;;5.07;100.00;101657.50;5050360;28;20128;-54
2023/03/05 02:44:05;;;;;;;6.50;2.70;;;;;;;5.03;100.00;101647.25;5050280;28;20037;-52
2023/03/05 02:46:30;;;;;;;4.15;3.13;;;;;;;4.98;100.00;101649.44;5042332;28;20041;-53
2023/03/05 02:48:56;;;;;;;5.20;2.53;;;;;;;4.92;100.00;101647.28;5046844;28;20111;-52
2023/03/05 02:51:21;;;;;;;6.85;3.05;;;;;;;4.91;100.00;101640.38;5049407;28;20083;-54
2023/03/05 02:53:46;;;;;;;3.97;2.45;;;;;;;4.92;100.00;101631.50;5046647;28;20090;-55
2023/03/05 02:56:12;;;;;;;5.78;2.10;;;;;;;4.99;100.00;101637.09;5054857;28;20029;-55
2023/03/05 02:58:37;;;;;;;4.28;2.28;;;;;;;4.94;100.00;101634.03;5055276;28;20025;-53
2023/03/05 03:01:03;;;;;;;4.35;2.72;;;;;;;4.98;100.00;101635.44;5047509;28;20033;-50
2023/03/05 03:03:28;;;;;;;4.30;2.17;;;;;;;4.99;100.00;101623.97;5051463;28;20148;-53
2023/03/05 03:05:53;;;;;;;4.32;2.55;;;;;;;5.01;100.00;101622.88;5048098;28;20043;-52
2023/03/05 03:08:19;;;;;;;5.93;2.55;;;;;;;5.11;100.00;101620.34;5052676;28;20032;-52
2023/03/05 03:10:44;;;;;;;3.53;2.78;;;;;;;5.15;100.00;101618.28;5046156;28;20032;-54
2023/03/05 03:13:10;;;;;;;5.20;2.55;;;;;;;5.09;100.00;101619.63;5050714;28;20029;-50
2023/03/05 03:15:36;;;;;;;6.80;2.17;;;;;;;5.11;100.00;101620.34;5045308;28;20371;-52
2023/03/05 03:18:02;;;;;;;5.10;2.78;;;;;;;5.06;100.00;101612.00;5048014;28;20027;-56
2023/03/05 03:20:27;;;;;;;5.20;3.53;;;;;;;5.17;100.00;101609.28;5048510;28;20120;-50
2023/03/05 03:22:53;;;;;;;8.48;4.40;;;;;;;5.20;100.00;101603.78;5050720;28;20028;-52
2023/03/05 03:25:20;;;;;;;8.52;3.08;;;;;;;5.13;100.00;101597.34;5049590;28;20033;-50
2023/03/05 03:27:46;;;;;;;6.43;2.67;;;;;;;5.09;100.00;101589.88;5050506;28;20396;-51
2023/03/05 03:30:12;;;;;;;10.00;2.70;;;;;;;4.99;100.00;101593.25;5051010;28;20021;-54
2023/03/05 03:32:37;;;;;;;4.28;1.63;;;;;;;5.00;100.00;101586.19;5043730;28;20025;-51
2023/03/05 03:35:03;;;;;;;7.53;2.55;;;;;;;4.99;100.00;101589.78;5050519;28;20030;-51
2023/03/05 03:37:29;;;;;;;7.10;3.47;;;;;;;4.97;100.00;101586.44;5043434;28;20155;-52
2023/03/05 03:39:54;;;;;;;12.77;3.58;;;;;;;4.90;100.00;101580.84;5041536;28;20040;-50
2023/03/05 03:42:21;;;;;;;6.03;2.75;;;;;;;4.88;100.00;101580.19;5051422;28;20034;-51
2023/03/05 03:44:48;;;;;;;5.22;2.47;;;;;;;4.93;100.00;101582.41;5044464;28;20182;-52
2023/03/05 03:47:13;;;;;;;2.85;2.45;;;;;;;4.92;100.00;101573.69;5042549;28;20033;-53
2023/03/05 03:49:39;;;;;;;4.45;3.13;;;;;;;4.95;100.00;101577.84;5046170;28;20100;-51
2023/03/05 03:52:05;;;;;;;4.15;3.45;;;;;;;4.95;100.00;101568.16;5041277;28;20042;-49
2023/03/05 03:54:30;;;;;;;3.40;2.80;;;;;;;4.87;100.00;101570.59;5046320;28;20033;-53
2023/03/05 03:56:55;;;;;;;5.07;3.40;;;;;;;4.79;100.00;101562.53;5049416;28;20074;-49
2023/03/05 03:59:21;;;;;;;3.25;2.95;;;;;;;4.77;100.00;101559.19;5051500;28;20052;-51
2023/03/05 04:01:46;;;;;;;4.90;2.75;;;;;;;4.82;100.00;101549.97;5043607;28;20504;-49
2023/03/05 04:04:12;;;;;;;6.32;3.55;;;;;;;4.89;100.00;101552.94;5046136;28;20064;-49
2023/03/05 04:06:38;;;;;;;5.50;2.45;;;;;;;4.86;100.00;101550.56;5047191;28;20045;-53
2023/03/05 04:09:04;;;;;;;5.10;2.67;;;;;;;4.82;100.00;101544.69;5047024;28;20068;-51
2023/03/05 04:11:29;;;;;;;5.03;2.70;;;;;;;4.82;100.00;101546.50;5042147;28;20401;-51
2023/03/05 04:13:54;;;;;;;5.22;2.97;;;;;;;4.85;100.00;101548.03;5049453;28;20116;-53
2023/03/05 04:16:20;;;;;;;6.13;2.63;;;;;;;4.92;100.00;101539.53;5044382;28;20029;-51
2023/03/05 04:18:45;;;;;;;3.40;2.17;;;;;;;4.89;100.00;101531.91;5046899;28;20013;-54
2023/03/05 04:21:11;;;;;;;4.85;3.28;;;;;;;4.88;100.00;101546.00;5046972;28;20052;-56
2023/03/05 04:23:37;;;;;;;4.18;2.38;;;;;;;4.91;100.00;101529.97;5048475;28;20079;-50
2023/03/05 04:26:02;;;;;;;7.20;2.70;;;;;;;4.92;100.00;101530.81;5046308;28;20033;-51
2023/03/05 04:28:28;;;;;;;4.70;2.75;;;;;;;4.88;100.00;101532.88;5054669;28;20029;-51
2023/03/05 04:30:53;;;;;;;7.07;2.92;;;;;;;4.86;100.00;101532.16;5049744;28;20083;-53
2023/03/05 04:33:19;;;;;;;5.97;3.00;;;;;;;4.82;100.00;101533.38;5046390;28;20115;-51
2023/03/05 04:35:44;;;;;;;6.70;2.92;;;;;;;4.79;100.00;101521.31;5045379;28;20059;-52
2023/03/05 04:38:10;;;;;;;7.50;2.38;;;;;;;4.80;100.00;101517.75;5045023;28;20037;-52
2023/03/05 04:40:36;;;;;;;5.03;2.65;;;;;;;4.84;100.00;101517.47;5048916;28;20021;-50
2023/03/05 04:43:01;;;;;;;4.10;3.10;;;;;;;4.87;100.00;101520.69;5049487;28;20078;-50
2023/03/05 04:45:27;;;;;;;4.22;2.85;;;;;;;4.90;100.00;101512.53;5005445;28;1104115;-54
2023/03/05 04:47:52;;;;;;;7.00;3.10;;;;;;;4.89;100.00;101515.31;5043697;28;20028;-51
2023/03/05 04:50:17;;;;;;;3.53;2.95;;;;;;;4.84;100.00;101507.81;5046302;28;20424;-51
2023/03/05 04:52:44;;;;;;;7.40;3.72;;;;;;;4.83;100.00;101506.16;5047418;28;20090;-52
2023/03/05 04:55:11;;;;;;;4.63;2.42;;;;;;;4.82;100.00;101509.72;5048937;28;20029;-52
2023/03/05 04:57:36;;;;;;;5.45;3.15;;;;;;;4.84;100.00;101499.09;5044687;28;20053;-51
2023/03/05 05:00:12;;;;;;;3.47;1.73;;;;;;;4.77;100.00;101490.88;5044585;28;20067;-52
2023/03/05 05:02:38;;;;;;;3.90;2.00;;;;;;;4.80;100.00;101490.59;5044241;28;20025;-54
2023/03/05 05:05:03;;;;;;;4.43;2.40;;;;;;;4.73;100.00;101485.06;5051478;28;20039;-52
2023/03/05 05:07:31;;;;;;;5.70;2.83;;;;;;;4.68;100.00;101475.91;5047278;28;20028;-50
2023/03/05 05:09:57;;;;;;;6.80;2.80;;;;;;;4.73;100.00;101485.06;5054205;28;20036;-51
2023/03/05 05:12:22;;;;;;;6.05;2.80;;;;;;;4.82;100.00;101478.19;5055598;28;20450;-52
2023/03/05 05:14:47;;;;;;;8.00;3.30;;;;;;;4.82;100.00;101475.56;5046565;28;20028;-49
2023/03/05 05:17:13;;;;;;;4.50;2.78;;;;;;;4.76;100.00;101473.44;5043677;28;20036;-54
2023/03/05 05:19:38;;;;;;;3.67;2.60;;;;;;;4.68;100.00;101476.72;5051968;28;20021;-51
2023/03/05 05:22:04;;;;;;;6.18;3.42;;;;;;;4.66;100.00;101477.81;5047599;28;20068;-54
2023/03/05 05:24:29;;;;;;;6.55;2.97;;;;;;;4.69;100.00;101472.28;5053242;28;20111;-53
2023/03/05 05:26:54;;;;;;;8.43;4.32;;;;;;;4.64;100.00;101464.78;5042934;28;20452;-56
2023/03/05 05:29:20;;;;;;;6.70;4.40;;;;;;;4.53;100.00;101470.13;5043253;28;20492;-51
2023/03/05 05:31:46;;;;;;;7.28;3.95;;;;;;;4.41;100.00;101465.88;5041093;28;20507;-54
2023/03/05 05:34:11;;;;;;;5.82;3.47;;;;;;;4.47;100.00;101460.97;5047841;28;20029;-50
2023/03/05 05:36:37;;;;;;;6.90;3.78;;;;;;;4.57;100.00;101461.88;5048610;28;20036;-54
2023/03/05 05:39:03;;;;;;;8.27;4.38;;;;;;;4.52;100.00;101458.78;5047688;28;20466;-51
2023/03/05 05:41:29;;;;;;;7.45;3.15;;;;;;;4.52;100.00;101458.78;5047955;28;20021;-48
2023/03/05 05:43:54;;;;;;;7.68;3.72;;;;;;;4.52;100.00;101452.69;5049613;28;20035;-55
2023/03/05 05:46:20;;;;;;;4.78;3.33;;;;;;;4.54;100.00;101456.88;5043630;28;20059;-54
2023/03/05 05:48:46;;;;;;;8.63;3.67;;;;;;;4.49;100.00;101450.31;5046608;28;20025;-55
2023/03/05 05:51:14;;;;;;;4.55;3.15;;;;;;;4.45;100.00;101455.00;5050119;28;20459;-54
2023/03/05 05:53:40;;;;;;;8.32;4.10;;;;;;;4.43;100.00;101446.41;5042806;28;20055;-53
2023/03/05 05:56:08;;;;;;;8.43;3.90;;;;;;;4.45;100.00;101449.75;5053910;28;20029;-51
2023/03/05 05:58:35;;;;;;;6.05;3.38;;;;;;;4.45;100.00;101459.41;5050710;28;20025;-50
2023/03/05 06:01:01;;;;;;;14.65;5.28;;;;;;;4.47;100.00;101452.25;5048050;28;20041;-49
2023/03/05 06:03:26;;;;;;;5.43;3.67;;;;;;;4.51;100.00;101451.03;5047489;28;20027;-56
2023/03/05 06:05:52;;;;;;;8.65;4.00;;;;;;;4.51;100.00;101453.66;5058847;28;20029;-53
2023/03/05 06:08:17;;;;;;;7.40;4.93;;;;;;;4.57;100.00;101443.47;5054631;28;20071;-51
2023/03/05 06:10:43;;;;;;;8.15;4.15;;;;;;;4.57;100.00;101440.03;5048075;28;20040;-54
2023/03/05 06:13:08;;;;;;;11.65;4.75;;;;;;;4.58;100.00;101439.06;5055910;28;20075;-53
2023/03/05 06:15:34;;;;;;;7.03;3.45;;;;;;;4.55;100.00;101434.88;5043362;28;20033;-50
2023/03/05 06:17:59;;;;;;;5.00;2.88;;;;;;;4.57;100.00;101437.41;5041005;28;20067;-50
2023/03/05 06:20:27;;;;;;;6.40;3.85;;;;;;;4.55;100.00;101436.69;5049429;28;20062;-50
2023/03/05 06:22:52;;;;;;;7.15;2.97;;;;;;;4.52;100.00;101432.53;5050554;28;20036;-51
2023/03/05 06:25:18;;;;;;;6.72;3.97;;;;;;;4.47;100.00;101432.06;5044455;28;20394;-53
2023/03/05 06:27:43;;;;;;;14.55;5.07;;;;;;;4.37;100.00;101431.16;5055405;28;20093;-51
2023/03/05 06:30:10;;;;;;;8.95;3.78;;;;;;;4.45;100.00;101431.34;5054220;28;20432;-51
2023/03/05 06:32:35;;;;;;;8.27;4.32;;;;;;;4.52;100.00;101427.25;5058517;28;20025;-51
2023/03/05 06:35:00;;;;;;;14.02;4.47;;;;;;;4.56;100.00;101415.53;5040137;28;20057;-54
2023/03/05 06:37:26;;;;;;;10.55;4.72;;;;;;;4.59;100.00;101423.16;5049846;28;20025;-49
2023/03/05 06:39:51;;;;;;;7.13;4.60;;;;;;;4.62;100.00;101414.19;5050465;28;20086;-55
2023/03/05 06:42:18;;;;;;;9.07;4.38;;;;;;;4.67;100.00;101414.63;5053646;28;20524;-52
2023/03/05 06:44:44;;;;;;;9.30;4.47;;;;;;;4.64;100.00;101417.50;5045764;28;20029;-51
2023/03/05 06:47:10;;;;;;;9.98;4.80;;;;;;;4.62;100.00;101415.97;5037203;28;20029;-51
2023/03/05 06:49:36;;;;;;;10.73;5.43;;;;;;;4.59;100.00;101414.44;5047039;28;20116;-52
2023/03/05 06:52:02;;;;;;;16.30;5.88;;;;;;;4.57;100.00;101421.63;5049585;28;20036;-51
2023/03/05 06:54:28;;;;;;;12.07;7.10;;;;;;;4.59;100.00;101417.91;5045890;28;20047;-53
2023/03/05 06:56:53;;;;;;;23.38;8.10;;;;;;;4.65;100.00;101427.06;5046081;28;20029;-50
2023/03/05 06:59:20;;;;;;;15.88;7.60;;;;;;;4.74;100.00;101422.81;5047147;28;20482;-51
2023/03/05 07:01:46;;;;;;;14.68;7.93;;;;;;;4.81;100.00;101418.72;5042094;28;20033;-55
2023/03/05 07:04:12;;;;;;;16.63;7.53;;;;;;;4.77;100.00;101422.56;5047410;28;20068;-54
2023/03/05 07:06:40;;;;;;;13.00;6.90;;;;;;;4.82;100.00;101428.25;5044389;28;20049;-49
2023/03/05 07:09:07;;;;;;;11.60;5.95;;;;;;;4.91;100.00;101422.22;5049512;28;20040;-50
2023/03/05 07:11:33;;;;;;;17.02;6.68;;;;;;;4.94;100.00;101413.25;5042870;28;20025;-49
2023/03/05 07:13:58;;;;;;;14.88;7.47;;;;;;;4.94;100.00;101410.63;5046000;28;20044;-55
2023/03/05 07:16:26;;;;;;;15.57;6.13;;;;;;;4.87;100.00;101412.94;5039706;28;20021;-53
2023/03/05 07:18:53;;;;;;;10.52;6.30;;;;;;;4.98;100.00;101410.25;5046948;28;20405;-51
2023/03/05 07:21:22;;;;;;;17.20;8.07;;;;;;;5.02;100.00;101405.53;5041445;28;20040;-53
2023/03/05 07:23:49;;;;;;;13.65;7.53;;;;;;;5.07;100.00;101413.03;5041544;28;20111;-52
2023/03/05 07:26:14;;;;;;;12.40;5.75;;;;;;;5.09;100.00;101408.47;5045853;28;20469;-51
2023/03/05 07:28:40;;;;;;;11.65;5.85;;;;;;;5.16;100.00;101412.22;5043320;28;20040;-51
2023/03/05 07:31:10;;;;;;;13.45;5.78;;;;;;;5.16;100.00;101406.97;5041977;28;20551;-53
2023/03/05 07:33:36;;;;;;;12.55;7.28;;;;;;;5.10;100.00;101407.50;5044406;28;20029;-50
2023/03/05 07:36:03;;;;;;;12.35;7.03;;;;;;;5.12;100.00;101410.84;5043858;28;20039;-50
2023/03/05 07:38:31;;;;;;;11.27;6.05;;;;;;;5.11;100.00;101412.63;5051900;28;20031;-54
2023/03/05 07:41:09;;;;;;;20.50;7.22;;;;;;;5.10;100.00;101407.50;5050370;28;20036;-51
2023/03/05 07:43:35;;;;;;;15.23;6.30;;;;;;;5.04;100.00;101411.50;5049958;28;20033;-53
2023/03/05 07:46:10;;;;;;;8.77;5.60;;;;;;;4.96;100.00;101411.31;5041078;28;20379;-51
2023/03/05 07:48:36;;;;;;;17.20;7.53;;;;;;;4.98;100.00;101415.50;5048018;28;20032;-55
2023/03/05 07:51:04;;;;;;;13.73;6.57;;;;;;;5.01;100.00;101415.22;5051055;28;20037;-50
2023/03/05 07:53:29;;;;;;;12.45;6.22;;;;;;;4.93;100.00;101409.78;5046713;28;20072;-49
2023/03/05 07:55:55;;;;;;;11.43;5.38;;;;;;;4.95;100.00;101412.28;5050919;28;20040;-52
2023/03/05 07:58:20;;;;;;;12.65;6.28;;;;;;;4.97;100.00;101410.34;5055713;28;20093;-51
2023/03/05 08:00:45;;;;;;;15.02;8.02;;;;;;;5.02;100.00;101408.16;5044132;28;20028;-52
2023/03/05 08:03:11;;;;;;;15.85;6.65;;;;;;;5.00;100.00;101407.47;5047352;28;20040;-54
2023/03/05 08:05:40;;;;;;;19.60;7.68;;;;;;;5.03;100.00;101412.44;5039159;28;20028;-55
2023/03/05 08:08:06;;;;;;;15.55;7.80;;;;;;;5.03;100.00;101402.78;5046940;28;20457;-51
2023/03/05 08:10:32;;;;;;;14.35;7.63;;;;;;;5.06;100.00;101392.94;5051345;28;20104;-53
2023/03/05 08:12:57;;;;;;;15.20;7.53;;;;;;;5.06;100.00;101391.19;5051426;28;20048;-52
2023/03/05 08:15:23;;;;;;;14.38;6.32;;;;;;;5.15;100.00;101400.88;5052074;28;20470;-54
2023/03/05 08:17:48;;;;;;;18.70;9.38;;;;;;;5.10;100.00;101394.34;5048566;28;20036;-51
2023/03/05 08:20:13;;;;;;;11.80;6.80;;;;;;;5.06;100.00;101395.56;5043107;28;20029;-51
2023/03/05 08:22:39;;;;;;;12.40;6.72;;;;;;;5.02;100.00;101402.91;5045003;28;20037;-54
2023/03/05 08:25:05;;;;;;;13.93;7.10;;;;;;;5.02;100.00;101401.09;5044935;28;20033;-53
2023/03/05 08:27:31;;;;;;;18.63;8.07;;;;;;;5.04;100.00;101400.97;5045877;28;20037;-54
2023/03/05 08:29:56;;;;;;;15.75;7.50;;;;;;;5.09;100.00;101397.97;5046854;28;20047;-53
2023/03/05 08:32:21;;;;;;;18.88;7.47;;;;;;;5.13;100.00;101401.97;5047010;28;20548;-52
2023/03/05 08:34:47;;;;;;;14.25;6.80;;;;;;;5.11;100.00;101396.88;5047242;28;20424;-52
2023/03/05 08:37:12;;;;;;;14.98;7.65;;;;;;;5.11;100.00;101396.88;5045134;28;20025;-51
2023/03/05 08:39:38;;;;;;;13.40;6.60;;;;;;;5.07;100.00;101392.00;5043893;28;20021;-52
2023/03/05 08:42:03;;;;;;;11.48;5.47;;;;;;;5.08;100.00;101391.84;5047411;28;20025;-51
2023/03/05 08:44:29;;;;;;;11.57;5.57;;;;;;;5.11;100.00;101393.38;5045513;28;20449;-53
2023/03/05 08:46:54;;;;;;;14.07;6.00;;;;;;;5.05;100.00;101378.16;5044446;28;20021;-54
2023/03/05 08:49:19;;;;;;;12.98;5.95;;;;;;;4.98;100.00;101373.44;5044124;28;20363;-49
2023/03/05 08:51:45;;;;;;;11.00;4.90;;;;;;;4.98;100.00;101378.69;5046682;28;20031;-53
2023/03/05 08:54:10;;;;;;;8.55;5.15;;;;;;;4.99;100.00;101375.09;5048308;28;20018;-54
2023/03/05 08:56:36;;;;;;;11.15;6.75;;;;;;;4.97;100.00;101366.50;5047404;28;20033;-51
2023/03/05 08:59:03;;;;;;;11.65;5.30;;;;;;;4.99;100.00;101363.75;5046339;28;20036;-53
2023/03/05 09:01:30;;;;;;;8.60;4.72;;;;;;;5.00;100.00;101371.47;5047853;28;20025;-52
2023/03/05 09:03:57;;;;;;;9.93;5.38;;;;;;;4.99;100.00;101369.00;5045196;28;20042;-55
2023/03/05 09:06:22;;;;;;;6.53;4.65;;;;;;;4.94;100.00;101366.78;5043577;28;20090;-54
2023/03/05 09:08:48;;;;;;;8.52;5.82;;;;;;;4.90;100.00;101364.53;5045029;28;20407;-56
2023/03/05 09:11:15;;;;;;;10.43;5.20;;;;;;;4.81;100.00;101368.78;5042075;28;20112;-51
2023/03/05 09:13:40;;;;;;;6.20;3.83;;;;;;;4.66;100.00;101370.09;5044919;28;20021;-51
2023/03/05 09:16:10;;;;;;;7.82;4.30;;;;;;;4.76;100.00;101363.94;5046741;28;20382;-53
2023/03/05 09:18:35;;;;;;;8.50;4.85;;;;;;;4.82;100.00;101360.75;5044389;28;20537;-51
2023/03/05 09:21:08;;;;;;;9.80;4.22;;;;;;;4.78;100.00;101359.38;5047004;28;20037;-56
2023/03/05 09:23:34;;;;;;;4.53;3.75;;;;;;;4.88;100.00;101355.94;5045043;28;20098;-54
2023/03/05 09:25:59;;;;;;;9.75;3.95;;;;;;;4.95;100.00;101352.66;5038902;28;20462;-50
2023/03/05 09:28:24;;;;;;;7.28;3.78;;;;;;;4.97;100.00;101349.91;5046242;28;20032;-49
2023/03/05 09:30:50;;;;;;;8.40;4.00;;;;;;;5.02;100.00;101342.44;5038368;28;20513;-54
2023/03/05 09:33:15;;;;;;;4.70;3.70;;;;;;;5.06;100.00;101340.38;5044155;28;20461;-51
2023/03/05 09:35:41;;;;;;;4.70;2.97;;;;;;;5.09;100.00;101345.38;5045602;28;20024;-54
2023/03/05 09:38:06;;;;;;;7.10;3.95;;;;;;;4.99;100.00;101338.28;5041529;28;20418;-52
2023/03/05 09:40:54;;;;;;;4.88;3.33;;;;;;;4.97;100.00;101334.97;5043704;28;20481;-54
2023/03/05 09:43:28;;;;;;;6.63;3.85;;;;;;;5.00;100.00;101337.31;5045343;28;20543;-53
2023/03/05 09:46:05;;;;;;;6.35;3.30;;;;;;;5.10;100.00;101321.56;5036107;28;20187;-52
2023/03/05 09:48:39;;;;;;;8.45;3.35;;;;;;;5.28;100.00;101320.94;5039641;28;20028;-55
2023/03/05 09:51:11;;;;;;;3.55;2.72;;;;;;;5.46;100.00;101308.78;5043728;28;20021;-51
2023/03/05 09:53:49;;;;;;;5.10;3.95;;;;;;;5.67;100.00;101292.84;5050129;28;20025;-51
2023/03/05 09:56:18;;;;;;;6.70;3.08;;;;;;;5.76;100.00;101289.38;5045566;28;20566;-54
2023/03/05 09:58:53;;;;;;;3.92;3.17;;;;;;;5.63;100.00;101289.69;5060031;28;20477;-50
2023/03/05 10:01:38;;;;;;;5.72;3.42;;;;;;;5.68;100.00;101284.81;5045935;28;20040;-54
2023/03/05 10:04:11;;;;;;;6.18;2.97;;;;;;;5.60;100.00;101281.22;5052692;28;20040;-50
2023/03/05 10:06:49;;;;;;;4.63;2.63;;;;;;;5.59;100.00;101280.38;5045650;28;20017;-50
2023/03/05 10:09:20;;;;;;;5.30;2.45;;;;;;;5.66;100.00;101278.03;5042322;28;20036;-54
2023/03/05 10:12:06;;;;;;;5.53;2.90;;;;;;;5.65;100.00;101276.34;5044107;28;20549;-53
2023/03/05 10:14:36;;;;;;;5.20;2.72;;;;;;;5.66;100.00;101270.97;5044840;28;20056;-54
2023/03/05 10:17:24;;;;;;;8.90;3.67;;;;;;;5.70;100.00;101268.88;5044984;28;20119;-52
2023/03/05 10:20:03;;;;;;;5.28;3.65;;;;;;;5.73;100.00;101268.63;5044184;28;20167;-51
2023/03/05 10:22:51;;;;;;;19.27;3.22;;;;;;;5.79;100.00;101268.06;5039631;28;20108;-52
2023/03/05 10:25:30;;;;;;;3.40;2.70;;;;;;;5.66;100.00;101262.25;5037057;28;20041;-51
2023/03/05 10:28:04;;;;;;;6.78;3.60;;;;;;;5.56;100.00;101256.16;5038084;28;20037;-55
2023/03/05 10:30:32;;;;;;;5.22;3.20;;;;;;;5.49;100.00;101249.78;5039031;28;20086;-53
2023/03/05 10:33:01;;;;;;;6.50;2.45;;;;;;;5.53;100.00;101238.03;5045072;28;20029;-49
2023/03/05 10:36:01;;;;;;;5.75;3.08;;;;;;;5.61;100.00;101233.72;5046487;28;20033;-52
2023/03/05 10:39:05;;;;;;;4.60;2.75;;;;;;;5.67;100.00;101232.31;5044325;28;20051;-51
2023/03/05 10:41:36;;;;;;;5.70;3.42;;;;;;;5.79;100.00;101236.47;5043955;28;20116;-51
2023/03/05 10:44:02;;;;;;;4.00;2.28;;;;;;;5.70;100.00;101218.88;5044277;28;20082;-51
2023/03/05 10:46:34;;;;;;;3.85;2.80;;;;;;;5.84;100.00;101215.00;5044816;28;20482;-54
2023/03/05 10:49:18;;;;;;;4.68;3.05;;;;;;;5.95;100.00;101217.47;5037926;28;20033;-52
2023/03/05 10:52:12;;;;;;;12.02;3.17;;;;;;;6.00;100.00;101224.97;5045951;28;20049;-52
2023/03/05 10:54:40;;;;;;;4.60;3.08;;;;;;;6.07;100.00;101197.09;5039009;28;20128;-49
2023/03/05 10:57:11;;;;;;;5.47;2.80;;;;;;;6.29;100.00;101187.97;5039993;28;20025;-51
2023/03/05 10:59:40;;;;;;;4.07;2.25;;;;;;;6.63;100.00;101190.03;5050046;28;20547;-52
2023/03/05 11:02:07;;;;;;;5.35;2.55;;;;;;;6.74;100.00;101184.56;5045664;28;20080;-52
2023/03/05 11:04:36;;;;;;;6.45;2.95;;;;;;;6.84;100.00;101177.41;5047141;28;20389;-50
2023/03/05 11:07:07;;;;;;;7.32;2.58;;;;;;;7.02;100.00;101176.56;5043574;28;20028;-51
2023/03/05 11:09:32;;;;;;;7.85;2.75;;;;;;;7.03;100.00;101173.81;5040388;28;20035;-53
2023/03/05 11:12:16;;;;;;;3.03;2.70;;;;;;;7.15;100.00;101169.09;5042513;28;20032;-52
2023/03/05 11:15:04;;;;;;;6.22;2.92;;;;;;;7.20;98.81;101154.50;5046339;28;20021;-52
2023/03/05 11:17:36;;;;;;;3.17;2.40;;;;;;;7.29;100.00;101158.03;5049909;28;20044;-51
2023/03/05 11:20:26;;;;;;;5.53;2.25;;;;;;;7.57;98.04;101157.91;5052742;28;20033;-51
2023/03/05 11:23:02;;;;;;;5.10;2.20;;;;;;;7.74;97.10;101150.91;5043201;28;20072;-51
2023/03/05 11:25:29;;;;;;;4.18;2.33;;;;;;;7.74;92.39;101159.66;5049973;28;20488;-54
2023/03/05 11:27:55;;;;;;;6.97;3.47;;;;;;;7.64;91.94;101151.84;5047845;28;20064;-51